Overview Statistics Trail Chart Weather Telemetry Raw packets
 

This is the latest recevied weather packets stored in our database for station/object KL4TQ. If no packets are shown the sender has not sent any weather packets the latest 10 day(s).

<< 79 80 81 82 83 84 85 >>
Time Temp. Humidity Pressure Rain* Wind** Luminosity Snow
1777117568 3.89° C 77% 856 hPa 0 mm - 0 W/m² -
1777117268 3.89° C 77% 856 hPa 0 mm - 0 W/m² -
1777116968 4.44° C 75% 857 hPa 1.27 mm - 0 W/m² -
1777116669 5° C 68% 857 hPa 1.52 mm - 0 W/m² -
1777116368 6.11° C 65% 857 hPa 0 mm - 0 W/m² -
1777116068 5.56° C 64% 857 hPa 0 mm - 0 W/m² -
1777115768 5.56° C 65% 857 hPa 0 mm - 0 W/m² -
1777115468 5.56° C 65% 857 hPa 0 mm - 0 W/m² -
1777115168 5.56° C 65% 857 hPa 0 mm - 0 W/m² -
1777114868 5.56° C 66% 857 hPa 0 mm - 0 W/m² -
1777114568 5.56° C 68% 857 hPa 0 mm - 0 W/m² -
1777114268 5.56° C 68% 857 hPa 0 mm - 0 W/m² -
1777113968 5.56° C 68% 857 hPa 0 mm - 0 W/m² -
1777113668 5.56° C 67% 857 hPa 0 mm - 0 W/m² -
1777113368 5.56° C 65% 857 hPa 0 mm - 0 W/m² -
1777113068 5.56° C 66% 857 hPa 0 mm - 0 W/m² -
1777112769 6.11° C 64% 857 hPa 0 mm - 0 W/m² -
1777112468 6.11° C 61% 857 hPa 0 mm - 0 W/m² -
1777112168 6.67° C 60% 857 hPa 0 mm - 0 W/m² -
1777111869 6.67° C 59% 857 hPa 0 mm - 0 W/m² -
1777111568 6.67° C 60% 857 hPa 0 mm - 0 W/m² -
1777111268 6.67° C 61% 857 hPa 0 mm - 0 W/m² -
1777110968 6.67° C 60% 857 hPa 0 mm - 0 W/m² -
1777110668 7.22° C 59% 857 hPa 0 mm - 0 W/m² -
1777110368 7.22° C 58% 857 hPa 0 mm - 0 W/m² -

* Rain latest hour (hover to see other rain measurements)
** Current wind speed in m/s (hover to see current wind gust speed)